Time;durP1;ratioP1;P1;durP2;ratioP2;P2;SDS_P1;SDS_P2;PMS_P1;PMS_P2;Temp;Humidity;BMP_temperature;BMP_pressure;BME280_temperature;BME280_humidity;BME280_pressure;Samples;Min_cycle;Max_cycle;Signal;HPM_P1;HPM_P2
2022/08/02 00:03:26;;;;;;;0.00;0.00;;;;;;;10.85;100.00;101933.59;10518499;28;20055;-74
2022/08/02 00:08:28;;;;;;;0.65;0.32;;;;;;;11.10;100.00;101924.25;10519951;28;20127;-74
2022/08/02 00:13:30;;;;;;;0.20;0.20;;;;;;;10.88;100.00;101938.84;10536063;28;20052;-73
2022/08/02 00:18:32;;;;;;;0.00;0.00;;;;;;;10.88;100.00;101959.47;10534917;28;20043;-74
2022/08/02 00:23:34;;;;;;;0.00;0.00;;;;;;;10.69;100.00;101965.56;10536516;28;20486;-74
2022/08/02 00:28:56;;;;;;;0.20;0.10;;;;;;;11.00;100.00;101958.22;10515469;28;20121;-74
2022/08/02 00:33:58;;;;;;;0.32;0.05;;;;;;;11.15;100.00;101950.22;10508655;28;20491;-74
2022/08/02 00:39:20;;;;;;;0.00;0.00;;;;;;;11.27;100.00;101958.47;10543198;28;20047;-74
2022/08/02 00:44:36;;;;;;;0.00;0.00;;;;;;;10.82;100.00;101977.25;10512113;28;20060;-74
2022/08/02 00:49:38;;;;;;;0.05;0.05;;;;;;;10.93;100.00;101963.16;10525812;28;20048;-74
2022/08/02 00:54:39;;;;;;;0.20;0.10;;;;;;;10.87;100.00;101956.84;10525975;28;20483;-74
2022/08/02 00:59:41;;;;;;;0.00;0.00;;;;;;;11.06;100.00;101949.03;10511679;28;20048;-74
2022/08/02 01:04:43;;;;;;;0.00;0.00;;;;;;;11.16;100.00;101944.25;10534237;28;20487;-74
2022/08/02 01:09:44;;;;;;;0.00;0.00;;;;;;;11.15;100.00;101950.22;10483930;28;20106;-74
2022/08/02 01:14:50;;;;;;;1.00;0.08;;;;;;;10.98;100.00;101953.03;10508678;28;20066;-74
2022/08/02 01:20:24;;;;;;;0.10;0.10;;;;;;;10.79;100.00;101949.66;10515449;28;20040;-73
2022/08/02 01:26:08;;;;;;;0.10;0.10;;;;;;;10.95;100.00;101934.84;10515479;28;20051;-74
2022/08/02 01:31:15;;;;;;;0.10;0.10;;;;;;;10.88;100.00;101943.13;10524823;28;20043;-74
2022/08/02 01:36:20;;;;;;;0.20;0.10;;;;;;;10.63;100.00;101945.56;10523225;28;20501;-74
2022/08/02 01:41:25;;;;;;;0.00;0.00;;;;;;;10.61;100.00;101938.59;10523674;28;20043;-74
2022/08/02 01:46:29;;;;;;;0.03;0.03;;;;;;;10.41;100.00;101933.47;10523272;28;20433;-73
2022/08/02 01:56:54;;;;;;;0.52;0.13;;;;;;;10.28;100.00;101918.25;10541283;28;20067;-74
2022/08/02 02:01:58;;;;;;;0.40;0.40;;;;;;;10.13;100.00;101919.34;10522578;28;20481;-74
2022/08/02 02:07:02;;;;;;;0.00;0.00;;;;;;;10.09;100.00;101926.88;10533463;28;20062;-74
2022/08/02 02:12:05;;;;;;;0.08;0.08;;;;;;;9.89;100.00;101928.53;10508176;28;20109;-74
2022/08/02 02:17:15;;;;;;;0.30;0.22;;;;;;;9.86;100.00;101918.13;10522219;28;20040;-74
2022/08/02 02:22:37;;;;;;;0.00;0.00;;;;;;;9.90;100.00;101905.47;10522616;28;20071;-74
2022/08/02 02:27:48;;;;;;;0.10;0.00;;;;;;;9.83;100.00;101904.31;10521289;28;20048;-74
2022/08/02 02:32:52;;;;;;;0.25;0.20;;;;;;;9.61;100.00;101911.84;10522328;28;20410;-74
2022/08/02 02:37:55;;;;;;;0.15;0.15;;;;;;;9.80;100.00;101882.69;10530036;28;20062;-74
2022/08/02 02:43:00;;;;;;;0.22;0.17;;;;;;;9.72;100.00;101886.63;10539623;28;20044;-74
2022/08/02 02:48:03;;;;;;;0.15;0.15;;;;;;;9.65;100.00;101901.78;10538366;28;20086;-74
2022/08/02 02:53:06;;;;;;;0.00;0.00;;;;;;;9.65;100.00;101894.06;10534994;28;20043;-74
2022/08/02 02:58:09;;;;;;;0.43;0.30;;;;;;;9.71;100.00;101867.72;10520164;28;20032;-74
2022/08/02 03:03:12;;;;;;;0.10;0.10;;;;;;;9.61;100.00;101875.84;10503886;28;20059;-74
2022/08/02 03:08:14;;;;;;;0.03;0.00;;;;;;;9.84;100.00;101858.84;10519184;28;20036;-74
2022/08/02 03:13:17;;;;;;;0.20;0.13;;;;;;;9.73;100.00;101858.38;10534358;28;20048;-74
2022/08/02 03:18:31;;;;;;;0.13;0.13;;;;;;;9.56;100.00;101867.91;10519611;28;20036;-74
2022/08/02 03:23:34;;;;;;;0.17;0.10;;;;;;;9.44;100.00;101872.50;10529099;28;20052;-74
2022/08/02 03:28:36;;;;;;;0.28;0.15;;;;;;;9.47;100.00;101880.34;10537251;28;20483;-74
2022/08/02 03:33:38;;;;;;;0.10;0.05;;;;;;;9.72;100.00;101869.47;10536963;28;20051;-78
2022/08/02 03:38:42;;;;;;;0.00;0.00;;;;;;;9.75;100.00;101864.47;10546204;28;20097;-78
2022/08/02 03:43:45;;;;;;;0.00;0.00;;;;;;;9.71;100.00;101862.59;10517595;28;20044;-78
2022/08/02 03:48:49;;;;;;;0.25;0.20;;;;;;;9.56;100.00;101867.03;10534644;28;20039;-78
2022/08/02 03:53:51;;;;;;;0.08;0.08;;;;;;;9.58;100.00;101862.81;10549037;28;20040;-78
2022/08/02 03:59:13;;;;;;;0.68;0.28;;;;;;;9.77;100.00;101861.97;10532963;28;20470;-78
2022/08/02 04:04:15;;;;;;;0.03;0.03;;;;;;;9.81;100.00;101869.88;10513806;28;20319;-78
2022/08/02 04:09:17;;;;;;;0.60;0.25;;;;;;;9.70;100.00;101871.13;10515944;28;20063;-78
2022/08/02 04:14:19;;;;;;;0.10;0.10;;;;;;;9.92;100.00;101877.22;10540280;28;20043;-78
2022/08/02 04:19:28;;;;;;;0.17;0.10;;;;;;;9.98;100.00;101869.75;10523009;28;20055;-77
2022/08/02 04:24:38;;;;;;;0.45;0.45;;;;;;;9.95;100.00;101878.22;10522257;28;20102;-78
2022/08/02 04:29:41;;;;;;;0.10;0.10;;;;;;;10.11;100.00;101874.63;10527574;28;20468;-78
2022/08/02 04:34:47;;;;;;;0.17;0.17;;;;;;;10.29;100.00;101876.25;10530930;28;20132;-78
2022/08/02 04:40:10;;;;;;;0.20;0.20;;;;;;;10.33;100.00;101872.97;10529818;28;20044;-78
2022/08/02 04:45:14;;;;;;;0.15;0.15;;;;;;;10.58;100.00;101877.47;10503201;28;20135;-79
2022/08/02 04:50:19;;;;;;;6.78;0.68;;;;;;;10.54;100.00;101869.56;10516219;28;20044;-79
2022/08/02 04:55:24;;;;;;;0.30;0.30;;;;;;;10.92;100.00;101888.28;10530420;28;20048;-78
2022/08/02 05:00:27;;;;;;;1.17;0.43;;;;;;;11.15;100.00;101885.75;10510814;28;20040;-78
2022/08/02 05:05:29;;;;;;;0.73;0.60;;;;;;;11.08;100.00;101918.16;10514426;28;20095;-78
2022/08/02 05:10:32;;;;;;;0.20;0.20;;;;;;;11.32;100.00;101928.56;10480898;28;20048;-78
2022/08/02 05:15:34;;;;;;;0.32;0.17;;;;;;;11.75;100.00;101916.44;10544681;28;20047;-79
2022/08/02 05:20:38;;;;;;;0.70;0.50;;;;;;;12.10;100.00;101924.63;10519208;28;20040;-79
2022/08/02 05:25:40;;;;;;;0.65;0.50;;;;;;;12.70;100.00;101902.56;10537264;28;20044;-79
2022/08/02 05:30:41;;;;;;;0.70;0.60;;;;;;;12.94;100.00;101879.19;10522573;28;20055;-79
2022/08/02 05:35:44;;;;;;;0.90;0.60;;;;;;;13.37;100.00;101886.50;10524944;28;20051;-79
2022/08/02 05:40:45;;;;;;;1.15;0.60;;;;;;;13.62;100.00;101878.69;10532855;28;20089;-79
2022/08/02 05:45:55;;;;;;;3.78;0.75;;;;;;;14.01;100.00;101871.97;10521962;28;20048;-80
2022/08/02 05:51:05;;;;;;;1.75;1.02;;;;;;;14.43;100.00;101855.81;10520776;28;20490;-79
2022/08/02 05:56:23;;;;;;;0.47;0.43;;;;;;;14.63;100.00;101854.56;10556731;28;20048;-79
2022/08/02 06:01:33;;;;;;;2.08;1.33;;;;;;;14.96;100.00;101830.28;10563260;28;20040;-79
2022/08/02 06:06:36;;;;;;;1.85;0.75;;;;;;;15.19;100.00;101823.00;10545690;28;20255;-79
2022/08/02 06:11:43;;;;;;;1.77;0.90;;;;;;;15.46;100.00;101817.50;10493430;28;20060;-78
2022/08/02 06:17:03;;;;;;;0.55;0.52;;;;;;;15.78;100.00;101813.81;10516118;28;20046;-79
2022/08/02 06:22:14;;;;;;;0.65;0.52;;;;;;;16.07;100.00;101801.34;10536942;28;20119;-79
2022/08/02 06:27:37;;;;;;;1.40;0.60;;;;;;;16.42;100.00;101803.66;10541460;28;20042;-79
2022/08/02 06:32:39;;;;;;;1.95;1.17;;;;;;;16.78;100.00;101792.09;10522997;28;20074;-79
2022/08/02 06:37:55;;;;;;;1.25;0.77;;;;;;;16.86;100.00;101788.72;10538013;28;20048;-79
2022/08/02 06:43:25;;;;;;;0.73;0.50;;;;;;;17.35;100.00;101778.09;10536295;28;20130;-79
2022/08/02 06:48:30;;;;;;;0.90;0.65;;;;;;;17.63;100.00;101776.66;10539869;28;20043;-79
2022/08/02 06:53:32;;;;;;;0.65;0.63;;;;;;;17.99;100.00;101772.69;10561790;28;20049;-78
2022/08/02 06:58:34;;;;;;;1.60;0.85;;;;;;;18.24;100.00;101775.53;10524483;28;20046;-79
2022/08/02 07:03:38;;;;;;;2.28;1.35;;;;;;;18.54;100.00;101761.81;10553638;28;20653;-79
2022/08/02 07:08:39;;;;;;;0.63;0.60;;;;;;;19.59;100.00;101739.63;10514440;28;20048;-78
2022/08/02 07:13:41;;;;;;;1.17;0.98;;;;;;;19.95;100.00;101728.38;10568944;28;20052;-79
2022/08/02 07:18:43;;;;;;;2.15;1.42;;;;;;;20.38;100.00;101716.13;10536331;28;20047;-79
2022/08/02 07:23:44;;;;;;;1.35;0.95;;;;;;;21.43;100.00;101715.72;10563371;28;20055;-79
2022/08/02 07:28:46;;;;;;;2.40;0.50;;;;;;;21.63;100.00;101706.88;10531605;28;20040;-79
2022/08/02 07:33:48;;;;;;;1.00;0.52;;;;;;;21.71;100.00;101705.06;10547382;28;20176;-79
2022/08/02 07:38:49;;;;;;;18.33;1.00;;;;;;;22.45;100.00;101688.63;10532219;28;20403;-79
2022/08/02 07:43:53;;;;;;;0.90;0.55;;;;;;;22.21;100.00;101683.63;10507222;28;20040;-79
2022/08/02 07:48:55;;;;;;;0.20;0.20;;;;;;;22.10;100.00;101679.34;10533756;28;20044;-80
2022/08/02 07:53:57;;;;;;;0.55;0.40;;;;;;;23.10;100.00;101676.44;10542222;28;20391;-79
2022/08/02 07:59:05;;;;;;;0.40;0.30;;;;;;;22.48;100.00;101678.13;10538660;28;20134;-80
2022/08/02 08:04:08;;;;;;;1.25;0.43;;;;;;;23.30;100.00;101663.03;10511625;28;20051;-79
2022/08/02 08:09:10;;;;;;;0.50;0.50;;;;;;;23.37;100.00;101651.53;10537268;28;20497;-79
2022/08/02 08:14:12;;;;;;;0.20;0.20;;;;;;;23.69;100.00;101652.78;10557416;28;20047;-79
2022/08/02 08:19:17;;;;;;;0.88;0.57;;;;;;;24.35;100.00;101648.09;10523743;28;20035;-79
2022/08/02 08:24:19;;;;;;;3.70;0.80;;;;;;;24.00;97.17;101649.66;10556964;28;20062;-81
2022/08/02 08:29:21;;;;;;;5.07;0.88;;;;;;;24.23;93.29;101645.72;10525886;28;20047;-81
2022/08/02 08:34:23;;;;;;;0.65;0.57;;;;;;;24.28;95.88;101638.59;10535567;28;20051;-80
2022/08/02 08:39:25;;;;;;;0.57;0.40;;;;;;;24.90;91.40;101624.16;10543069;28;20522;-82
2022/08/02 08:44:27;;;;;;;0.43;0.22;;;;;;;25.02;92.57;101621.22;10549218;28;20047;-80
2022/08/02 08:49:39;;;;;;;0.47;0.40;;;;;;;25.24;93.36;101625.97;10551299;28;20048;-79
2022/08/02 08:54:55;;;;;;;0.25;0.17;;;;;;;25.27;96.67;101632.94;10566750;28;20048;-79
2022/08/02 09:00:00;;;;;;;0.32;0.20;;;;;;;25.06;96.40;101636.97;10555954;28;20036;-79
2022/08/02 09:05:01;;;;;;;0.35;0.35;;;;;;;25.03;99.08;101633.50;10519904;28;20039;-79
2022/08/02 09:10:42;;;;;;;0.40;0.40;;;;;;;25.33;100.00;101630.16;10549488;28;20044;-79
2022/08/02 09:16:00;;;;;;;10.52;1.13;;;;;;;25.17;97.10;101629.66;10542072;28;20051;-80
2022/08/02 09:21:15;;;;;;;;;;;;;;;25.72;98.09;101622.16;10520794;28;20047;-80
2022/08/02 09:26:20;;;;;;;0.28;0.28;;;;;;;24.70;100.00;101630.69;10559866;28;20114;-79
2022/08/02 09:31:22;;;;;;;0.30;0.30;;;;;;;24.84;100.00;101635.69;10537671;28;20453;-80
2022/08/02 09:36:26;;;;;;;0.88;0.40;;;;;;;25.40;98.28;101625.63;10547137;28;20380;-79
2022/08/02 09:41:33;;;;;;;1.02;0.68;;;;;;;25.16;100.00;101627.94;10543919;28;20709;-80
2022/08/02 09:46:39;;;;;;;1.08;0.40;;;;;;;25.81;99.01;101626.31;10520161;28;20510;-80
2022/08/02 09:51:53;;;;;;;0.40;0.32;;;;;;;25.86;92.86;101627.09;10552797;28;20433;-79
2022/08/02 09:56:58;;;;;;;2.00;0.80;;;;;;;25.64;96.11;101614.47;10535911;28;20501;-79
2022/08/02 10:02:08;;;;;;;1.80;0.20;;;;;;;26.65;96.36;101602.88;10541180;28;20486;-79
2022/08/02 10:07:18;;;;;;;0.38;0.35;;;;;;;26.60;87.69;101611.81;10549719;28;20042;-80
2022/08/02 10:12:22;;;;;;;0.75;0.63;;;;;;;26.57;91.75;101603.97;10511814;28;20453;-80
2022/08/02 10:17:24;;;;;;;0.30;0.10;;;;;;;26.45;89.97;101610.47;10545936;28;20399;-79
2022/08/02 10:22:27;;;;;;;0.20;0.20;;;;;;;26.14;90.62;101618.44;10556120;28;20104;-80
2022/08/02 10:27:30;;;;;;;1.92;0.10;;;;;;;26.54;84.30;101614.66;10545945;28;20036;-79
2022/08/02 10:32:54;;;;;;;0.28;0.28;;;;;;;26.70;84.25;101607.09;10561823;28;20052;-79
2022/08/02 10:38:02;;;;;;;0.40;0.28;;;;;;;26.73;79.57;101611.44;10566584;28;20036;-79
2022/08/02 10:43:03;;;;;;;0.20;0.20;;;;;;;26.45;74.52;101607.84;10530899;28;20048;-78
2022/08/02 10:48:10;;;;;;;0.13;0.10;;;;;;;26.12;70.46;101628.16;10518910;28;20036;-78
2022/08/02 10:53:31;;;;;;;1.50;0.60;;;;;;;26.35;67.84;101626.66;10547755;28;20495;-80
2022/08/02 10:58:33;;;;;;;0.00;0.00;;;;;;;26.01;69.25;101622.28;10529919;28;20173;-78
2022/08/02 11:03:40;;;;;;;0.40;0.30;;;;;;;26.08;73.82;101618.63;10503955;28;20048;-79
2022/08/02 11:08:42;;;;;;;0.32;0.30;;;;;;;25.97;68.08;101621.53;10507699;28;20044;-78
2022/08/02 11:14:07;;;;;;;0.10;0.10;;;;;;;26.66;66.57;101609.88;10537588;28;20043;-78
2022/08/02 11:19:10;;;;;;;0.10;0.10;;;;;;;27.12;66.82;101604.94;10551358;28;20391;-79
2022/08/02 11:24:27;;;;;;;0.75;0.22;;;;;;;26.15;68.13;101604.31;10533935;28;20067;-77
2022/08/02 11:29:34;;;;;;;0.35;0.35;;;;;;;26.47;67.87;101602.53;10539804;28;20054;-79
2022/08/02 11:34:39;;;;;;;0.13;0.13;;;;;;;27.20;61.55;101594.97;10564950;28;20051;-78
2022/08/02 11:39:49;;;;;;;0.08;0.08;;;;;;;27.27;62.52;101595.66;10526579;28;20048;-78
2022/08/02 11:44:51;;;;;;;0.10;0.10;;;;;;;27.21;61.91;101592.31;10518886;28;20058;-78
2022/08/02 11:50:04;;;;;;;0.20;0.10;;;;;;;26.98;65.36;101592.19;10517226;28;20435;-80
2022/08/02 11:55:07;;;;;;;0.13;0.08;;;;;;;27.02;60.21;101604.38;10560495;28;20080;-79
2022/08/02 12:00:17;;;;;;;0.13;0.10;;;;;;;26.82;57.96;101595.31;10564287;28;20067;-78
2022/08/02 12:05:21;;;;;;;0.00;0.00;;;;;;;27.40;57.22;101591.69;10552958;28;20051;-78
2022/08/02 12:10:47;;;;;;;0.00;0.00;;;;;;;27.41;59.13;101585.47;10533727;28;20081;-77
2022/08/02 12:15:49;;;;;;;18.48;1.58;;;;;;;27.79;63.87;101593.88;10545862;28;20517;-79
2022/08/02 12:20:50;;;;;;;0.10;0.10;;;;;;;27.54;60.79;101594.75;10561124;28;20048;-78
2022/08/02 12:26:18;;;;;;;0.20;0.10;;;;;;;27.77;54.74;101595.72;10549087;28;20555;-79
2022/08/02 12:31:20;;;;;;;0.88;0.52;;;;;;;27.17;56.62;101598.59;10556122;28;20070;-79
2022/08/02 12:36:29;;;;;;;0.00;0.00;;;;;;;27.13;58.08;101589.06;10544958;28;20048;-80
2022/08/02 12:41:31;;;;;;;0.00;0.00;;;;;;;27.51;55.46;101586.94;10551498;28;20512;-80
2022/08/02 12:46:33;;;;;;;0.52;0.15;;;;;;;27.86;52.36;101587.44;10566229;28;20044;-79
2022/08/02 12:51:46;;;;;;;0.00;0.00;;;;;;;27.46;50.12;101575.63;10558811;28;20036;-79
2022/08/02 12:57:08;;;;;;;0.00;0.00;;;;;;;28.35;45.55;101573.31;10534121;28;20048;-78
2022/08/02 13:02:11;;;;;;;0.00;0.00;;;;;;;28.40;44.19;101562.53;10558487;28;20039;-79
2022/08/02 13:07:14;;;;;;;0.00;0.00;;;;;;;28.27;43.89;101562.16;10546563;28;20097;-80
2022/08/02 13:12:15;;;;;;;0.10;0.10;;;;;;;28.24;43.81;101563.13;10547994;28;20031;-78
2022/08/02 13:17:18;;;;;;;0.47;0.28;;;;;;;28.70;42.05;101543.72;10551479;28;20402;-78
2022/08/02 13:22:19;;;;;;;0.05;0.05;;;;;;;28.15;43.12;101553.75;10557536;28;20509;-78
2022/08/02 13:27:23;;;;;;;0.10;0.10;;;;;;;28.55;42.99;101534.59;10538395;28;20101;-78
2022/08/02 13:32:27;;;;;;;0.10;0.00;;;;;;;28.46;41.94;101547.28;10557250;28;20490;-79
2022/08/02 13:37:29;;;;;;;0.10;0.10;;;;;;;28.43;42.49;101531.50;10551489;28;20055;-80
2022/08/02 13:42:32;;;;;;;0.77;0.10;;;;;;;27.99;42.60;101541.97;10552105;28;20133;-79
2022/08/02 13:47:33;;;;;;;0.20;0.20;;;;;;;28.13;45.30;101539.69;10539108;28;20047;-79
2022/08/02 13:52:55;;;;;;;0.40;0.30;;;;;;;28.31;43.16;101535.47;10524897;28;20071;-79
2022/08/02 13:57:57;;;;;;;0.00;0.00;;;;;;;27.91;42.42;101531.69;10520451;28;20040;-78
2022/08/02 14:02:58;;;;;;;0.38;0.20;;;;;;;28.10;43.87;101529.25;10512787;28;20052;-80
2022/08/02 14:08:00;;;;;;;0.10;0.10;;;;;;;28.00;43.08;101527.81;10539070;28;20071;-78
2022/08/02 14:13:02;;;;;;;0.00;0.00;;;;;;;28.17;41.95;101514.84;10541228;28;20445;-79
2022/08/02 14:18:03;;;;;;;10.52;1.65;;;;;;;28.64;43.47;101497.09;10544800;28;20042;-79
2022/08/02 14:23:05;;;;;;;0.00;0.00;;;;;;;28.09;40.84;101503.69;10569613;28;20043;-80
2022/08/02 14:28:07;;;;;;;1.60;0.20;;;;;;;27.69;44.43;101502.47;10525014;28;20047;-78
2022/08/02 14:33:09;;;;;;;0.00;0.00;;;;;;;28.17;42.81;101491.00;10479160;28;20064;-79
2022/08/02 14:38:10;;;;;;;0.05;0.05;;;;;;;28.39;44.16;101503.41;10530584;28;20281;-77
2022/08/02 14:44:02;;;;;;;0.17;0.17;;;;;;;28.57;42.80;101496.50;10521331;28;20495;-79
2022/08/02 14:48:34;;;;;;;0.22;0.10;;;;;;;28.80;40.04;101494.72;10541717;28;20051;-78
2022/08/02 14:53:35;;;;;;;0.00;0.00;;;;;;;28.36;38.12;101482.31;10541468;28;20036;-78
2022/08/02 14:58:38;;;;;;;0.10;0.10;;;;;;;27.98;40.15;101481.97;10509560;28;20051;-78
2022/08/02 15:03:40;;;;;;;0.20;0.15;;;;;;;27.94;41.80;101481.25;10524499;28;20408;-79
2022/08/02 15:08:44;;;;;;;0.28;0.25;;;;;;;27.78;43.36;101478.31;10509912;28;20055;-78
2022/08/02 15:13:53;;;;;;;0.00;0.00;;;;;;;28.38;45.88;101469.88;10537358;28;20707;-78
2022/08/02 15:19:01;;;;;;;0.00;0.00;;;;;;;28.28;40.47;101468.50;10528021;28;20032;-78
2022/08/02 15:24:06;;;;;;;0.00;0.00;;;;;;;28.09;39.30;101460.41;10527810;28;20048;-78
2022/08/02 15:29:09;;;;;;;0.00;0.00;;;;;;;28.36;44.46;101455.81;10533128;28;20035;-78
2022/08/02 15:34:11;;;;;;;0.47;0.43;;;;;;;28.29;43.02;101449.91;10524800;28;20047;-78
2022/08/02 15:39:12;;;;;;;0.00;0.00;;;;;;;28.19;42.43;101443.25;10522887;28;20437;-78
2022/08/02 15:44:14;;;;;;;0.10;0.10;;;;;;;28.42;39.89;101450.25;10535971;28;20044;-77
2022/08/02 15:49:19;;;;;;;0.00;0.00;;;;;;;28.63;41.86;101442.38;10514811;28;20048;-78
2022/08/02 15:54:21;;;;;;;0.00;0.00;;;;;;;28.27;42.69;101446.47;10526482;28;20111;-79
2022/08/02 15:59:23;;;;;;;0.22;0.22;;;;;;;28.47;41.83;101437.72;10529175;28;20739;-78
2022/08/02 16:04:24;;;;;;;0.10;0.10;;;;;;;28.21;42.74;101446.72;10504793;28;20470;-79
2022/08/02 16:09:26;;;;;;;0.57;0.22;;;;;;;28.34;42.40;101436.47;10515366;28;20097;-78
2022/08/02 16:14:28;;;;;;;0.75;0.40;;;;;;;28.03;44.08;101432.38;10512529;28;20492;-79
2022/08/02 16:19:30;;;;;;;0.00;0.00;;;;;;;28.12;44.10;101431.16;10524203;28;20082;-78
2022/08/02 16:24:50;;;;;;;0.10;0.08;;;;;;;28.16;45.06;101436.28;10516624;28;20048;-79
2022/08/02 16:29:53;;;;;;;0.28;0.28;;;;;;;28.07;45.93;101427.84;10538223;28;20044;-79
2022/08/02 16:34:55;;;;;;;0.15;0.15;;;;;;;28.32;45.83;101435.69;10528901;28;20052;-79
2022/08/02 16:40:10;;;;;;;0.10;0.10;;;;;;;28.34;48.85;101425.84;10538993;28;20044;-78
2022/08/02 16:45:12;;;;;;;0.00;0.00;;;;;;;28.35;46.09;101422.28;10530353;28;20044;-79
2022/08/02 16:50:16;;;;;;;0.00;0.00;;;;;;;28.25;47.74;101420.97;10530095;28;20044;-78
2022/08/02 16:55:28;;;;;;;0.00;0.00;;;;;;;28.13;48.35;101417.84;10545421;28;20469;-79
2022/08/02 17:00:32;;;;;;;0.17;0.10;;;;;;;28.05;52.48;101408.47;10529103;28;20114;-78
2022/08/02 17:05:44;;;;;;;0.30;0.30;;;;;;;27.37;50.79;101410.09;10523988;28;20052;-78
2022/08/02 17:11:01;;;;;;;0.10;0.10;;;;;;;27.74;53.91;101399.94;10537102;28;20044;-78
2022/08/02 17:16:06;;;;;;;0.80;0.43;;;;;;;27.99;51.51;101399.84;10543909;28;20051;-78
2022/08/02 17:21:32;;;;;;;1.65;0.65;;;;;;;27.92;50.13;101408.09;10529851;28;20103;-78
2022/08/02 17:26:35;;;;;;;0.10;0.10;;;;;;;27.95;51.11;101407.97;10525592;28;20067;-78
2022/08/02 17:31:39;;;;;;;0.10;0.10;;;;;;;27.83;51.45;101401.38;10527757;28;20517;-78
2022/08/02 17:37:09;;;;;;;0.00;0.00;;;;;;;27.79;53.38;101408.56;10543964;28;20119;-79
2022/08/02 17:42:13;;;;;;;0.00;0.00;;;;;;;27.81;53.25;101406.72;10528585;28;20162;-79
2022/08/02 17:47:30;;;;;;;0.15;0.15;;;;;;;27.68;55.10;101405.47;10523008;28;20491;-78
2022/08/02 17:53:08;;;;;;;0.40;0.10;;;;;;;27.64;57.71;101406.50;10513604;28;20597;-79
2022/08/02 17:58:15;;;;;;;0.10;0.10;;;;;;;27.57;57.97;101418.25;10503819;28;20097;-78
2022/08/02 18:03:20;;;;;;;0.98;0.38;;;;;;;27.37;57.83;101422.44;10525734;28;20067;-79
2022/08/02 18:08:28;;;;;;;0.10;0.03;;;;;;;27.28;60.10;101422.81;10542438;28;20055;-78
2022/08/02 18:13:30;;;;;;;0.10;0.10;;;;;;;27.17;59.22;101416.09;10523864;28;20094;-78
2022/08/02 18:18:36;;;;;;;0.85;0.15;;;;;;;27.07;64.00;101422.63;10539307;28;20377;-78
2022/08/02 18:23:37;;;;;;;0.43;0.10;;;;;;;26.81;67.66;101419.13;10533119;28;20044;-78
2022/08/02 18:28:45;;;;;;;0.00;0.00;;;;;;;26.72;67.63;101420.28;10533031;28;20508;-78
2022/08/02 18:33:47;;;;;;;0.00;0.00;;;;;;;26.46;69.53;101418.50;10524212;28;20495;-78
2022/08/02 18:39:08;;;;;;;0.00;0.00;;;;;;;26.41;71.31;101415.13;10541967;28;20048;-78
2022/08/02 18:44:15;;;;;;;0.82;0.28;;;;;;;26.17;70.44;101412.38;10506472;28;20065;-78
2022/08/02 18:49:17;;;;;;;0.70;0.30;;;;;;;26.07;73.68;101403.88;10542798;28;20376;-78
2022/08/02 18:54:18;;;;;;;0.20;0.20;;;;;;;25.93;79.56;101406.91;10540859;28;20072;-78
2022/08/02 18:59:31;;;;;;;0.00;0.00;;;;;;;25.51;86.28;101409.91;10539423;28;20043;-80
2022/08/02 19:04:42;;;;;;;0.00;0.00;;;;;;;25.15;100.00;101410.00;10521171;28;20044;-83
2022/08/02 19:09:48;;;;;;;0.55;0.35;;;;;;;24.90;100.00;101415.94;10568397;28;20032;-79
2022/08/02 19:14:50;;;;;;;0.10;0.10;;;;;;;24.44;100.00;101414.41;10569447;28;20135;-79
2022/08/02 19:19:52;;;;;;;0.25;0.25;;;;;;;24.10;100.00;101409.91;10526945;28;20055;-79
2022/08/02 19:24:56;;;;;;;0.32;0.08;;;;;;;23.89;100.00;101410.38;10530318;28;20410;-79
2022/08/02 19:30:04;;;;;;;0.88;0.20;;;;;;;23.80;100.00;101415.81;10516310;28;20032;-80
2022/08/02 19:35:14;;;;;;;0.00;0.00;;;;;;;23.66;100.00;101417.88;10506273;28;20048;-79
2022/08/02 19:40:31;;;;;;;0.00;0.00;;;;;;;23.19;100.00;101429.28;10500923;28;20071;-80
2022/08/02 19:45:33;;;;;;;0.00;0.00;;;;;;;22.60;100.00;101439.91;10540545;28;20244;-79
2022/08/02 19:50:53;;;;;;;0.10;0.03;;;;;;;22.61;100.00;101441.63;10543708;28;20040;-80
2022/08/02 19:56:17;;;;;;;0.30;0.10;;;;;;;22.52;100.00;101441.78;10519408;28;20043;-80
2022/08/02 20:01:38;;;;;;;0.10;0.10;;;;;;;22.17;100.00;101446.63;10531627;28;20085;-79
2022/08/02 20:06:47;;;;;;;0.00;0.00;;;;;;;22.11;100.00;101447.56;10525395;28;20048;-80
2022/08/02 20:11:49;;;;;;;0.17;0.17;;;;;;;21.96;100.00;101448.66;10536527;28;20076;-80
2022/08/02 20:16:56;;;;;;;0.75;0.38;;;;;;;21.92;100.00;101451.34;10532134;28;20044;-81
2022/08/02 20:21:57;;;;;;;0.00;0.00;;;;;;;21.78;100.00;101447.09;10514336;28;20044;-80
2022/08/02 20:27:01;;;;;;;0.10;0.10;;;;;;;21.64;100.00;101456.88;10536656;28;20093;-80
2022/08/02 20:32:03;;;;;;;0.32;0.20;;;;;;;21.81;100.00;101448.84;10538485;28;20040;-79
2022/08/02 20:37:05;;;;;;;0.00;0.00;;;;;;;21.34;100.00;101466.78;10521978;28;20043;-79
2022/08/02 20:42:26;;;;;;;0.10;0.10;;;;;;;21.03;100.00;101474.94;10530218;28;20048;-78
2022/08/02 20:47:29;;;;;;;0.00;0.00;;;;;;;20.80;100.00;101478.63;10520508;28;20055;-78
2022/08/02 20:52:46;;;;;;;0.32;0.20;;;;;;;20.69;100.00;101481.28;10539598;28;20570;-79
2022/08/02 20:57:50;;;;;;;0.00;0.00;;;;;;;20.61;100.00;101470.84;10525012;28;20043;-78
2022/08/02 21:03:02;;;;;;;0.20;0.08;;;;;;;20.41;100.00;101476.22;10540796;28;20067;-79
2022/08/02 21:08:05;;;;;;;0.55;0.15;;;;;;;20.33;100.00;101487.63;10545329;28;20513;-79
2022/08/02 21:13:14;;;;;;;0.10;0.10;;;;;;;20.31;100.00;101484.13;10513424;28;20467;-78
2022/08/02 21:18:23;;;;;;;0.20;0.10;;;;;;;20.24;100.00;101488.53;10513963;28;20123;-78
2022/08/02 21:23:40;;;;;;;0.35;0.20;;;;;;;20.32;100.00;101485.88;10535304;28;20040;-78
2022/08/02 21:28:49;;;;;;;0.00;0.00;;;;;;;20.17;100.00;101484.22;10517251;28;20460;-78
2022/08/02 21:33:51;;;;;;;0.00;0.00;;;;;;;20.14;100.00;101485.09;10545158;28;20039;-79
2022/08/02 21:39:03;;;;;;;0.10;0.10;;;;;;;19.85;100.00;101487.81;10544212;28;20040;-78
2022/08/02 21:44:08;;;;;;;0.10;0.10;;;;;;;19.55;100.00;101493.09;10530827;28;20123;-78
2022/08/02 21:49:10;;;;;;;0.20;0.10;;;;;;;19.56;100.00;101505.28;10552260;28;20043;-78
2022/08/02 21:54:13;;;;;;;0.93;0.22;;;;;;;19.28;100.00;101505.31;10544445;28;20535;-78
2022/08/02 21:59:21;;;;;;;0.10;0.10;;;;;;;19.48;100.00;101502.69;10555349;28;20101;-79
2022/08/02 22:04:27;;;;;;;0.20;0.10;;;;;;;19.40;100.00;101503.59;10532955;28;20081;-79
2022/08/02 22:09:30;;;;;;;0.55;0.30;;;;;;;19.21;100.00;101508.81;10517901;28;20050;-78
2022/08/02 22:14:49;;;;;;;0.00;0.00;;;;;;;19.27;100.00;101514.03;10583018;28;20047;-78
2022/08/02 22:19:55;;;;;;;0.00;0.00;;;;;;;19.14;100.00;101512.28;10537012;28;20038;-79
2022/08/02 22:24:57;;;;;;;0.17;0.15;;;;;;;19.09;100.00;101514.91;10534950;28;20063;-79
2022/08/02 22:30:00;;;;;;;0.00;0.00;;;;;;;18.77;100.00;101520.06;10491022;28;20037;-78
2022/08/02 22:35:04;;;;;;;0.20;0.00;;;;;;;18.70;100.00;101530.50;10523237;28;20044;-78
2022/08/02 22:40:25;;;;;;;0.52;0.22;;;;;;;18.69;100.00;101535.72;10507797;28;20044;-79
2022/08/02 22:45:28;;;;;;;0.00;0.00;;;;;;;18.77;100.00;101535.72;10531026;28;20058;-78
2022/08/02 22:50:33;;;;;;;0.10;0.10;;;;;;;18.81;100.00;101525.31;10535790;28;20044;-79
2022/08/02 22:55:35;;;;;;;0.00;0.00;;;;;;;18.66;100.00;101528.72;10523091;28;1078506;-78
2022/08/02 23:00:42;;;;;;;0.32;0.30;;;;;;;18.76;100.00;101523.53;10562101;28;20044;-78
2022/08/02 23:05:46;;;;;;;0.77;0.50;;;;;;;18.69;100.00;101526.16;10537402;28;20055;-78
2022/08/02 23:10:47;;;;;;;0.25;0.10;;;;;;;18.61;100.00;101525.25;10527384;28;20487;-78
2022/08/02 23:21:10;;;;;;;0.00;0.00;;;;;;;18.50;100.00;101526.97;10561146;28;20040;-78
2022/08/02 23:26:11;;;;;;;0.00;0.00;;;;;;;18.32;100.00;101536.47;10529501;28;20089;-79
2022/08/02 23:31:30;;;;;;;0.20;0.10;;;;;;;18.33;100.00;101533.00;10518528;28;20044;-79
2022/08/02 23:36:32;;;;;;;0.32;0.30;;;;;;;18.35;100.00;101538.22;10564001;28;20050;-78